Time;durP1;ratioP1;P1;durP2;ratioP2;P2;SDS_P1;SDS_P2;PMS_P1;PMS_P2;Temp;Humidity;BMP_temperature;BMP_pressure;BME280_temperature;BME280_humidity;BME280_pressure;Samples;Min_cycle;Max_cycle;Signal;HPM_P1;HPM_P2
2023/03/30 00:01:47;;;;;;;;;;;11.50;99.90;;;;;;5058812;28;19924;-71
2023/03/30 00:04:13;;;;;;;;;;;11.50;99.90;;;;;;5006061;28;167686;-71
2023/03/30 00:06:41;;;;;;;;;;;11.50;99.90;;;;;;5055717;28;19938;-71
2023/03/30 00:09:07;;;;;;;;;;;11.50;99.90;;;;;;5011842;28;201071;-71
2023/03/30 00:11:33;;;;;;;;;;;11.50;99.90;;;;;;5042837;28;19928;-71
2023/03/30 00:13:59;;;;;;;;;;;11.50;99.90;;;;;;5011385;28;207664;-72
2023/03/30 00:16:26;;;;;;;;;;;11.50;99.90;;;;;;5043136;28;19931;-71
2023/03/30 00:18:51;;;;;;;;;;;11.40;99.90;;;;;;5029722;28;237120;-71
2023/03/30 00:21:19;;;;;;;;;;;11.50;99.90;;;;;;5003662;28;122215;-70
2023/03/30 00:23:46;;;;;;;;;;;11.50;99.90;;;;;;5060371;28;19925;-71
2023/03/30 00:26:13;;;;;;;;;;;11.50;99.90;;;;;;4987113;28;208441;-71
2023/03/30 00:28:39;;;;;;;;;;;11.50;99.90;;;;;;5075570;28;19920;-71
2023/03/30 00:31:06;;;;;;;;;;;11.50;99.90;;;;;;4995068;28;206256;-70
2023/03/30 00:33:32;;;;;;;;;;;11.50;99.90;;;;;;5059734;28;19940;-71
2023/03/30 00:35:58;;;;;;;;;;;11.60;99.90;;;;;;5009864;28;174248;-71
2023/03/30 00:38:28;;;;;;;;;;;11.60;99.90;;;;;;5063227;28;19932;-70
2023/03/30 00:40:56;;;;;;;;;;;11.60;99.90;;;;;;5021779;28;208075;-72
2023/03/30 00:43:22;;;;;;;;;;;11.60;99.90;;;;;;5057955;28;19928;-71
2023/03/30 00:45:49;;;;;;;;;;;11.50;99.90;;;;;;5017750;28;218640;-72
2023/03/30 00:48:17;;;;;;;;;;;11.60;99.90;;;;;;5074293;28;19920;-72
2023/03/30 00:50:43;;;;;;;;;;;11.60;99.90;;;;;;5001952;28;205312;-72
2023/03/30 00:53:32;;;;;;;;;;;11.60;99.90;;;;;;5061915;28;20059;-70
2023/03/30 00:55:59;;;;;;;;;;;11.60;99.90;;;;;;5003004;28;190949;-71
2023/03/30 00:58:26;;;;;;;;;;;11.60;99.90;;;;;;5058906;28;19928;-71
2023/03/30 01:00:53;;;;;;;;;;;11.60;99.90;;;;;;5009462;28;206369;-71
2023/03/30 01:03:18;;;;;;;;;;;11.60;99.90;;;;;;5056313;28;19921;-72
2023/03/30 01:05:45;;;;;;;;;;;11.60;99.90;;;;;;5006121;28;206457;-70
2023/03/30 01:08:12;;;;;;;;;;;11.70;99.90;;;;;;5061066;28;19925;-70
2023/03/30 01:10:38;;;;;;;;;;;11.60;99.90;;;;;;5008572;28;241884;-71
2023/03/30 01:13:05;;;;;;;;;;;11.70;99.90;;;;;;5060204;28;20055;-71
2023/03/30 01:15:33;;;;;;;;;;;11.70;99.90;;;;;;4976347;28;206040;-71
2023/03/30 01:18:18;;;;;;;;;;;11.70;99.90;;;;;;5058342;28;20274;-71
2023/03/30 01:20:57;;;;;;;;;;;11.70;99.90;;;;;;4990243;28;202474;-72
2023/03/30 01:23:45;;;;;;;;;;;11.70;99.90;;;;;;5057173;28;19943;-71
2023/03/30 01:26:20;;;;;;;;;;;11.80;99.90;;;;;;5020209;28;207580;-71
2023/03/30 01:29:10;;;;;;;;;;;11.70;99.90;;;;;;5055422;28;19944;-71
2023/03/30 01:31:35;;;;;;;;;;;11.70;99.90;;;;;;4924021;28;206490;-71
2023/03/30 01:34:29;;;;;;;;;;;11.70;99.90;;;;;;4961727;28;206102;-71
2023/03/30 01:37:01;;;;;;;;;;;11.80;99.90;;;;;;4988362;28;19932;-70
2023/03/30 01:39:43;;;;;;;;;;;11.80;99.90;;;;;;4954380;28;212522;-72
2023/03/30 01:42:27;;;;;;;;;;;11.90;99.90;;;;;;5011424;28;20833;-71
2023/03/30 01:45:12;;;;;;;;;;;11.90;99.90;;;;;;4942253;28;117175;-70
2023/03/30 01:47:43;;;;;;;;;;;11.90;99.90;;;;;;4995335;28;19938;-71
2023/03/30 01:50:12;;;;;;;;;;;11.90;99.90;;;;;;4930601;28;204496;-71
2023/03/30 01:52:58;;;;;;;;;;;11.90;99.90;;;;;;4994948;28;19983;-70
2023/03/30 01:55:28;;;;;;;;;;;11.90;99.90;;;;;;4939826;28;198518;-70
2023/03/30 01:58:00;;;;;;;;;;;11.90;99.90;;;;;;4993847;28;19932;-72
2023/03/30 02:00:27;;;;;;;;;;;11.90;99.90;;;;;;4921829;28;207515;-72
2023/03/30 02:02:57;;;;;;;;;;;11.90;99.90;;;;;;5010308;28;19928;-72
2023/03/30 02:05:26;;;;;;;;;;;11.90;99.90;;;;;;4921991;28;206506;-72
2023/03/30 02:07:54;;;;;;;;;;;11.80;99.90;;;;;;5008987;28;19929;-71
2023/03/30 02:10:23;;;;;;;;;;;11.90;99.90;;;;;;5018040;28;209552;-72
2023/03/30 02:12:50;;;;;;;;;;;11.90;99.90;;;;;;5070812;28;19925;-72
2023/03/30 02:15:17;;;;;;;;;;;11.90;99.90;;;;;;5007963;28;206472;-71
2023/03/30 02:17:46;;;;;;;;;;;11.80;99.90;;;;;;5065396;28;19928;-71
2023/03/30 02:20:15;;;;;;;;;;;11.80;99.90;;;;;;5008487;28;205113;-72
2023/03/30 02:22:42;;;;;;;;;;;11.80;99.90;;;;;;5067829;28;19924;-71
2023/03/30 02:25:08;;;;;;;;;;;11.70;99.90;;;;;;5013735;28;205406;-71
2023/03/30 02:27:35;;;;;;;;;;;11.70;99.90;;;;;;5063270;28;19925;-71
2023/03/30 02:30:01;;;;;;;;;;;11.80;99.90;;;;;;5006975;28;192574;-71
2023/03/30 02:32:29;;;;;;;;;;;11.70;99.90;;;;;;5054802;28;21582;-71
2023/03/30 02:35:08;;;;;;;;;;;11.70;99.90;;;;;;5001616;28;208018;-71
2023/03/30 02:37:53;;;;;;;;;;;11.70;99.90;;;;;;5051205;28;19921;-72
2023/03/30 02:40:19;;;;;;;;;;;11.70;99.90;;;;;;4994532;28;208405;-71
2023/03/30 02:43:20;;;;;;;;;;;11.70;99.90;;;;;;5061083;28;19924;-70
2023/03/30 02:46:05;;;;;;;;;;;11.70;99.90;;;;;;4998414;28;208312;-71
2023/03/30 02:48:40;;;;;;;;;;;11.80;99.90;;;;;;5026008;28;19949;-72
2023/03/30 02:51:15;;;;;;;;;;;11.80;99.90;;;;;;4985898;28;207313;-72
2023/03/30 02:53:48;;;;;;;;;;;11.80;99.90;;;;;;5044296;28;20329;-72
2023/03/30 02:56:18;;;;;;;;;;;11.80;99.90;;;;;;4985147;28;126264;-72
2023/03/30 02:58:46;;;;;;;;;;;11.80;99.90;;;;;;5030013;28;19924;-72
2023/03/30 03:01:25;;;;;;;;;;;11.70;99.90;;;;;;4946365;28;287692;-71
2023/03/30 03:03:52;;;;;;;;;;;11.70;99.90;;;;;;5031460;28;110975;-71
2023/03/30 03:06:19;;;;;;;;;;;11.70;99.90;;;;;;4984296;28;205323;-71
2023/03/30 03:08:48;;;;;;;;;;;11.60;99.90;;;;;;5054078;28;19931;-72
2023/03/30 03:11:14;;;;;;;;;;;11.60;99.90;;;;;;4978518;28;199994;-73
2023/03/30 03:13:41;;;;;;;;;;;11.60;99.90;;;;;;5055013;28;19946;-73
2023/03/30 03:16:09;;;;;;;;;;;11.50;99.90;;;;;;4971750;28;206837;-70
2023/03/30 03:18:38;;;;;;;;;;;11.50;99.90;;;;;;5056935;28;20112;-72
2023/03/30 03:21:06;;;;;;;;;;;11.50;99.90;;;;;;5021161;28;209481;-71
2023/03/30 03:23:32;;;;;;;;;;;11.50;99.90;;;;;;5058241;28;20462;-71
2023/03/30 03:25:59;;;;;;;;;;;11.50;99.90;;;;;;5021079;28;205794;-71
2023/03/30 03:28:25;;;;;;;;;;;11.50;99.90;;;;;;5058618;28;20411;-70
2023/03/30 03:30:52;;;;;;;;;;;11.50;99.90;;;;;;5019769;28;209710;-72
2023/03/30 03:33:19;;;;;;;;;;;11.50;99.90;;;;;;5061858;28;19940;-71
2023/03/30 03:35:45;;;;;;;;;;;11.50;99.90;;;;;;5002650;28;209292;-71
2023/03/30 03:38:11;;;;;;;;;;;11.50;99.90;;;;;;5056062;28;19924;-71
2023/03/30 03:40:37;;;;;;;;;;;11.60;99.90;;;;;;5014481;28;210928;-71
2023/03/30 03:43:03;;;;;;;;;;;11.60;99.90;;;;;;5057776;28;19939;-71
2023/03/30 03:45:29;;;;;;;;;;;11.70;99.90;;;;;;4983588;28;208387;-71
2023/03/30 03:47:55;;;;;;;;;;;11.70;99.90;;;;;;5036756;28;19924;-71
2023/03/30 03:50:23;;;;;;;;;;;11.70;99.90;;;;;;4990425;28;205629;-71
2023/03/30 03:52:48;;;;;;;;;;;11.70;99.90;;;;;;5061193;28;19928;-70
2023/03/30 03:55:14;;;;;;;;;;;11.70;99.90;;;;;;5019940;28;208695;-71
2023/03/30 03:57:41;;;;;;;;;;;11.70;99.90;;;;;;5056890;28;19978;-72
2023/03/30 04:00:15;;;;;;;;;;;11.80;99.90;;;;;;5016493;28;227915;-71
2023/03/30 04:02:41;;;;;;;;;;;11.80;99.90;;;;;;5060325;28;19928;-71
2023/03/30 04:05:07;;;;;;;;;;;11.80;99.90;;;;;;4991826;28;219537;-71
2023/03/30 04:07:34;;;;;;;;;;;11.80;99.90;;;;;;5051048;28;19925;-72
2023/03/30 04:10:01;;;;;;;;;;;11.80;99.90;;;;;;5004044;28;216746;-72
2023/03/30 04:12:30;;;;;;;;;;;11.80;99.90;;;;;;5067553;28;19929;-72
2023/03/30 04:14:56;;;;;;;;;;;11.80;99.90;;;;;;5007201;28;207319;-70
2023/03/30 04:17:22;;;;;;;;;;;11.80;99.90;;;;;;5068409;28;20007;-70
2023/03/30 04:19:52;;;;;;;;;;;11.80;99.90;;;;;;5011332;28;212779;-72
2023/03/30 04:22:18;;;;;;;;;;;11.90;99.90;;;;;;5066909;28;19927;-70
2023/03/30 04:24:44;;;;;;;;;;;11.80;99.90;;;;;;5012710;28;210348;-71
2023/03/30 04:27:13;;;;;;;;;;;11.80;99.90;;;;;;5057291;28;19928;-72
2023/03/30 04:29:39;;;;;;;;;;;11.80;99.90;;;;;;5003474;28;207458;-71
2023/03/30 04:32:06;;;;;;;;;;;11.80;99.90;;;;;;5053847;28;19939;-71
2023/03/30 04:34:32;;;;;;;;;;;11.80;99.90;;;;;;5009134;28;155520;-72
2023/03/30 04:36:58;;;;;;;;;;;11.80;99.90;;;;;;5069025;28;19931;-71
2023/03/30 04:39:29;;;;;;;;;;;11.80;99.90;;;;;;5008424;28;217290;-70
2023/03/30 04:41:54;;;;;;;;;;;11.80;99.90;;;;;;5059559;28;19939;-71
2023/03/30 04:44:20;;;;;;;;;;;11.80;99.90;;;;;;5003831;28;225077;-73
2023/03/30 04:46:46;;;;;;;;;;;11.90;99.90;;;;;;5039783;28;19920;-72
2023/03/30 04:49:12;;;;;;;;;;;12.00;99.90;;;;;;5004960;28;210828;-73
2023/03/30 04:51:39;;;;;;;;;;;12.00;99.90;;;;;;5056688;28;20411;-71
2023/03/30 04:54:05;;;;;;;;;;;12.10;99.90;;;;;;5015930;28;212611;-70
2023/03/30 04:56:31;;;;;;;;;;;12.10;99.90;;;;;;5055518;28;19927;-71
2023/03/30 04:58:57;;;;;;;;;;;12.20;99.90;;;;;;4994183;28;209794;-71
2023/03/30 05:01:23;;;;;;;;;;;12.20;99.90;;;;;;5053965;28;19921;-71
2023/03/30 05:03:49;;;;;;;;;;;12.30;99.90;;;;;;5041918;28;204519;-72
2023/03/30 05:06:15;;;;;;;;;;;12.40;99.90;;;;;;4985886;28;222175;-72
2023/03/30 05:08:40;;;;;;;;;;;12.40;99.90;;;;;;5058561;28;19921;-70
2023/03/30 05:11:06;;;;;;;;;;;12.30;99.90;;;;;;5013147;28;80766;-71
2023/03/30 05:13:32;;;;;;;;;;;12.30;99.90;;;;;;5059704;28;20323;-71
2023/03/30 05:15:58;;;;;;;;;;;12.30;99.90;;;;;;4995682;28;99033;-72
2023/03/30 05:18:24;;;;;;;;;;;12.30;99.90;;;;;;5054163;28;19925;-72
2023/03/30 05:20:50;;;;;;;;;;;12.20;99.90;;;;;;4981680;28;210568;-72
2023/03/30 05:23:16;;;;;;;;;;;12.20;99.90;;;;;;5055722;28;19939;-71
2023/03/30 05:25:45;;;;;;;;;;;12.20;99.90;;;;;;4999073;28;210447;-72
2023/03/30 05:28:11;;;;;;;;;;;12.10;99.90;;;;;;5059828;28;19928;-72
2023/03/30 05:30:37;;;;;;;;;;;12.10;99.90;;;;;;5012059;28;206252;-72
2023/03/30 05:33:04;;;;;;;;;;;12.10;99.90;;;;;;5061136;28;19940;-72
2023/03/30 05:35:30;;;;;;;;;;;12.00;99.90;;;;;;4997186;28;181148;-72
2023/03/30 05:37:55;;;;;;;;;;;11.90;99.90;;;;;;5062407;28;20357;-72
2023/03/30 05:40:22;;;;;;;;;;;11.90;99.90;;;;;;4989563;28;210991;-70
2023/03/30 05:42:47;;;;;;;;;;;11.80;99.90;;;;;;5050070;28;19951;-71
2023/03/30 05:45:14;;;;;;;;;;;11.80;99.90;;;;;;5015968;28;206675;-71
2023/03/30 05:47:40;;;;;;;;;;;11.80;99.90;;;;;;5061413;28;19931;-71
2023/03/30 05:50:06;;;;;;;;;;;11.90;99.90;;;;;;5012532;28;91902;-72
2023/03/30 05:52:32;;;;;;;;;;;11.90;99.90;;;;;;5056455;28;19939;-72
2023/03/30 05:54:58;;;;;;;;;;;11.90;99.90;;;;;;5006992;28;206486;-71
2023/03/30 05:57:24;;;;;;;;;;;11.90;99.90;;;;;;5063377;28;19932;-72
2023/03/30 05:59:51;;;;;;;;;;;11.90;99.90;;;;;;5014476;28;206801;-71
2023/03/30 06:02:18;;;;;;;;;;;11.90;99.90;;;;;;5047152;28;20415;-72
2023/03/30 06:04:44;;;;;;;;;;;11.90;99.90;;;;;;4989502;28;214801;-70
2023/03/30 06:07:10;;;;;;;;;;;12.00;99.90;;;;;;5049376;28;19921;-71
2023/03/30 06:09:36;;;;;;;;;;;11.90;99.90;;;;;;5014428;28;208358;-71
2023/03/30 06:12:02;;;;;;;;;;;11.90;99.90;;;;;;5064522;28;20999;-70
2023/03/30 06:14:28;;;;;;;;;;;12.00;99.90;;;;;;5005613;28;207871;-68
2023/03/30 06:16:54;;;;;;;;;;;12.00;99.90;;;;;;5069876;28;20282;-70
2023/03/30 06:19:20;;;;;;;;;;;12.10;99.90;;;;;;4995932;28;228895;-70
2023/03/30 06:21:46;;;;;;;;;;;12.10;99.90;;;;;;5050233;28;19928;-70
2023/03/30 06:24:12;;;;;;;;;;;12.10;99.90;;;;;;5004577;28;209280;-69
2023/03/30 06:26:39;;;;;;;;;;;12.20;99.90;;;;;;5070855;28;19928;-70
2023/03/30 06:29:05;;;;;;;;;;;12.20;99.90;;;;;;5008214;28;208022;-69
2023/03/30 06:31:32;;;;;;;;;;;12.30;99.90;;;;;;5071576;28;19944;-70
2023/03/30 06:33:58;;;;;;;;;;;12.40;99.90;;;;;;4999538;28;207027;-71
2023/03/30 06:36:24;;;;;;;;;;;12.40;99.90;;;;;;5058917;28;19967;-70
2023/03/30 06:38:50;;;;;;;;;;;12.50;99.90;;;;;;5041024;28;207191;-70
2023/03/30 06:41:16;;;;;;;;;;;12.60;99.90;;;;;;5022215;28;19966;-70
2023/03/30 06:43:42;;;;;;;;;;;13.00;99.90;;;;;;5065989;28;19928;-71
2023/03/30 06:46:10;;;;;;;;;;;13.20;99.90;;;;;;4986079;28;207436;-71
2023/03/30 06:48:35;;;;;;;;;;;13.10;99.90;;;;;;5057991;28;20315;-71
2023/03/30 06:51:02;;;;;;;;;;;13.00;99.90;;;;;;5012553;28;207426;-70
2023/03/30 06:53:28;;;;;;;;;;;13.00;99.90;;;;;;5058890;28;19932;-70
2023/03/30 06:55:55;;;;;;;;;;;13.00;99.90;;;;;;5009086;28;129277;-71
2023/03/30 06:58:22;;;;;;;;;;;13.00;99.90;;;;;;5061926;28;19931;-71
2023/03/30 07:00:48;;;;;;;;;;;12.90;99.90;;;;;;5002792;28;206876;-71
2023/03/30 07:03:17;;;;;;;;;;;13.20;99.90;;;;;;5060500;28;19935;-72
2023/03/30 07:05:51;;;;;;;;;;;13.10;99.90;;;;;;4969464;28;208200;-70
2023/03/30 07:08:17;;;;;;;;;;;12.90;99.90;;;;;;5058338;28;20411;-69
2023/03/30 07:10:44;;;;;;;;;;;12.90;99.90;;;;;;4997216;28;208441;-70
2023/03/30 07:13:10;;;;;;;;;;;12.80;99.90;;;;;;5064241;28;19980;-70
2023/03/30 07:15:36;;;;;;;;;;;12.70;99.90;;;;;;4976809;28;157198;-68
2023/03/30 07:18:03;;;;;;;;;;;12.60;99.90;;;;;;5050113;28;19931;-71
2023/03/30 07:20:29;;;;;;;;;;;12.60;99.90;;;;;;5004121;28;206196;-71
2023/03/30 07:22:55;;;;;;;;;;;12.50;99.90;;;;;;5060929;28;20313;-70
2023/03/30 07:25:21;;;;;;;;;;;12.50;99.90;;;;;;5014562;28;208147;-72
2023/03/30 07:27:47;;;;;;;;;;;12.50;99.90;;;;;;5065333;28;19927;-70
2023/03/30 07:30:13;;;;;;;;;;;12.50;99.90;;;;;;4998139;28;209046;-71
2023/03/30 07:32:40;;;;;;;;;;;12.40;99.90;;;;;;5052257;28;19947;-72
2023/03/30 07:35:07;;;;;;;;;;;12.50;99.90;;;;;;5001296;28;210056;-70
2023/03/30 07:37:34;;;;;;;;;;;12.40;99.90;;;;;;5057650;28;19920;-71
2023/03/30 07:40:00;;;;;;;;;;;12.40;99.90;;;;;;5005321;28;214646;-71
2023/03/30 07:42:26;;;;;;;;;;;12.40;99.90;;;;;;5063309;28;20392;-71
2023/03/30 07:44:52;;;;;;;;;;;12.40;99.90;;;;;;5006678;28;206892;-69
2023/03/30 07:47:18;;;;;;;;;;;12.40;99.90;;;;;;5058007;28;19927;-72
2023/03/30 07:49:44;;;;;;;;;;;12.30;99.90;;;;;;5004643;28;208099;-71
2023/03/30 07:52:10;;;;;;;;;;;12.30;99.90;;;;;;5049793;28;20554;-71
2023/03/30 07:54:36;;;;;;;;;;;12.30;99.90;;;;;;5008935;28;208090;-70
2023/03/30 07:57:02;;;;;;;;;;;12.20;99.90;;;;;;5068021;28;20067;-71
2023/03/30 07:59:28;;;;;;;;;;;12.20;99.90;;;;;;5008391;28;209586;-71
2023/03/30 08:01:55;;;;;;;;;;;12.10;99.90;;;;;;5067992;28;19921;-71
2023/03/30 08:04:23;;;;;;;;;;;12.00;99.90;;;;;;4985375;28;207169;-71
2023/03/30 08:06:51;;;;;;;;;;;12.00;99.90;;;;;;5055076;28;19950;-71
2023/03/30 08:09:17;;;;;;;;;;;11.90;99.90;;;;;;5000584;28;206489;-69
2023/03/30 08:11:43;;;;;;;;;;;11.90;99.90;;;;;;5057643;28;19924;-72
2023/03/30 08:14:09;;;;;;;;;;;11.90;99.90;;;;;;4996142;28;213231;-71
2023/03/30 08:16:35;;;;;;;;;;;12.00;99.90;;;;;;5058296;28;20277;-71
2023/03/30 08:19:01;;;;;;;;;;;12.00;99.90;;;;;;5007743;28;214074;-71
2023/03/30 08:21:27;;;;;;;;;;;12.00;99.90;;;;;;5055920;28;19924;-71
2023/03/30 08:23:56;;;;;;;;;;;12.00;99.90;;;;;;5025501;28;207297;-71
2023/03/30 08:26:22;;;;;;;;;;;11.90;99.90;;;;;;5045557;28;19935;-71
2023/03/30 08:28:48;;;;;;;;;;;11.80;99.90;;;;;;5048670;28;207239;-69
2023/03/30 08:31:17;;;;;;;;;;;11.80;99.90;;;;;;5015993;28;115717;-70
2023/03/30 08:33:43;;;;;;;;;;;11.70;99.90;;;;;;5051066;28;19952;-71
2023/03/30 08:36:11;;;;;;;;;;;11.80;99.90;;;;;;4988805;28;210931;-70
2023/03/30 08:38:38;;;;;;;;;;;11.80;99.90;;;;;;5054063;28;19940;-72
2023/03/30 08:41:33;;;;;;;;;;;11.70;99.90;;;;;;5004261;28;206019;-70
2023/03/30 08:44:02;;;;;;;;;;;11.70;99.90;;;;;;4996006;28;207001;-72
2023/03/30 08:46:28;;;;;;;;;;;11.70;99.90;;;;;;5013354;28;19935;-70
2023/03/30 08:48:56;;;;;;;;;;;11.60;99.90;;;;;;4992357;28;209770;-71
2023/03/30 08:51:29;;;;;;;;;;;11.70;99.90;;;;;;5024345;28;19929;-71
2023/03/30 08:53:57;;;;;;;;;;;11.80;99.90;;;;;;5000755;28;203973;-72
2023/03/30 08:56:25;;;;;;;;;;;11.90;99.90;;;;;;5045302;28;19935;-71
2023/03/30 08:59:10;;;;;;;;;;;12.00;99.90;;;;;;5041283;28;208404;-72
2023/03/30 09:01:56;;;;;;;;;;;12.00;99.90;;;;;;5019643;28;20115;-70
2023/03/30 09:04:40;;;;;;;;;;;12.10;99.90;;;;;;4986830;28;227056;-72
2023/03/30 09:07:12;;;;;;;;;;;12.10;99.90;;;;;;5024378;28;19931;-71
2023/03/30 09:09:40;;;;;;;;;;;12.20;99.90;;;;;;5005073;28;207293;-72
2023/03/30 09:12:27;;;;;;;;;;;12.30;99.90;;;;;;5059553;28;20376;-70
2023/03/30 09:14:56;;;;;;;;;;;12.30;99.90;;;;;;5007170;28;207529;-72
2023/03/30 09:17:44;;;;;;;;;;;12.40;99.90;;;;;;5028974;28;19931;-71
2023/03/30 09:20:11;;;;;;;;;;;12.40;99.90;;;;;;5011018;28;210055;-71
2023/03/30 09:22:38;;;;;;;;;;;12.60;99.90;;;;;;5064833;28;19927;-70
2023/03/30 09:25:10;;;;;;;;;;;12.80;99.90;;;;;;4998061;28;207168;-70
2023/03/30 09:27:42;;;;;;;;;;;13.30;99.90;;;;;;5061750;28;20407;-72
2023/03/30 09:30:19;;;;;;;;;;;13.40;99.90;;;;;;4987211;28;205182;-71
2023/03/30 09:32:48;;;;;;;;;;;13.40;99.90;;;;;;5053927;28;19932;-71
2023/03/30 09:35:18;;;;;;;;;;;13.30;99.90;;;;;;4998200;28;208122;-70
2023/03/30 09:37:43;;;;;;;;;;;13.20;99.90;;;;;;5061471;28;19925;-71
2023/03/30 09:40:25;;;;;;;;;;;13.50;99.90;;;;;;5000700;28;206597;-70
2023/03/30 09:43:00;;;;;;;;;;;13.70;99.90;;;;;;5038925;28;19924;-71
2023/03/30 09:45:28;;;;;;;;;;;13.70;99.90;;;;;;5007542;28;209131;-69
2023/03/30 09:47:54;;;;;;;;;;;13.60;99.90;;;;;;5056325;28;19933;-71
2023/03/30 09:50:21;;;;;;;;;;;13.40;99.90;;;;;;4993641;28;206781;-70
2023/03/30 09:52:56;;;;;;;;;;;13.30;99.90;;;;;;5050571;28;19983;-71
2023/03/30 09:55:25;;;;;;;;;;;13.20;99.90;;;;;;4994754;28;206484;-71
2023/03/30 09:57:51;;;;;;;;;;;13.20;99.90;;;;;;5049248;28;19925;-70
2023/03/30 10:00:28;;;;;;;;;;;13.10;99.90;;;;;;5001242;28;206979;-69
2023/03/30 10:02:58;;;;;;;;;;;12.80;99.90;;;;;;5058872;28;19920;-69
2023/03/30 10:05:25;;;;;;;;;;;12.80;99.90;;;;;;4949497;28;230271;-68
2023/03/30 10:07:52;;;;;;;;;;;12.80;99.90;;;;;;5036719;28;20296;-69
2023/03/30 10:10:24;;;;;;;;;;;12.90;99.90;;;;;;5001878;28;210389;-70
2023/03/30 10:12:52;;;;;;;;;;;12.80;99.90;;;;;;5053253;28;20459;-71
2023/03/30 10:15:20;;;;;;;;;;;12.80;99.90;;;;;;5010595;28;207212;-68
2023/03/30 10:17:47;;;;;;;;;;;12.80;99.90;;;;;;5060739;28;19936;-71
2023/03/30 10:20:15;;;;;;;;;;;12.80;99.90;;;;;;5009855;28;208657;-72
2023/03/30 10:23:03;;;;;;;;;;;12.80;99.90;;;;;;5053010;28;19935;-68
2023/03/30 10:25:30;;;;;;;;;;;12.90;99.90;;;;;;5006853;28;207230;-70
2023/03/30 10:28:00;;;;;;;;;;;12.90;99.90;;;;;;5040029;28;20389;-70
2023/03/30 10:30:27;;;;;;;;;;;12.90;99.90;;;;;;5019400;28;208034;-70
2023/03/30 10:32:54;;;;;;;;;;;13.00;99.90;;;;;;5069074;28;20357;-70
2023/03/30 10:35:22;;;;;;;;;;;12.90;99.90;;;;;;5019955;28;207971;-72
2023/03/30 10:37:51;;;;;;;;;;;13.00;99.90;;;;;;5061428;28;19952;-70
2023/03/30 10:40:26;;;;;;;;;;;13.10;99.90;;;;;;5012159;28;207126;-70
2023/03/30 10:42:54;;;;;;;;;;;13.20;99.90;;;;;;5057834;28;20598;-69
2023/03/30 10:45:41;;;;;;;;;;;13.20;99.90;;;;;;5013711;28;212247;-69
2023/03/30 10:48:26;;;;;;;;;;;13.30;99.90;;;;;;5056096;28;20474;-70
2023/03/30 10:51:02;;;;;;;;;;;13.40;99.90;;;;;;5008662;28;215944;-71
2023/03/30 10:53:40;;;;;;;;;;;13.30;99.90;;;;;;5054018;28;19937;-71
2023/03/30 10:56:09;;;;;;;;;;;13.30;99.90;;;;;;5013527;28;212617;-70
2023/03/30 10:58:38;;;;;;;;;;;13.40;99.90;;;;;;5058689;28;19924;-70
2023/03/30 11:01:07;;;;;;;;;;;13.40;99.90;;;;;;5020858;28;207342;-72
2023/03/30 11:03:35;;;;;;;;;;;13.40;99.90;;;;;;5058995;28;19931;-72
2023/03/30 11:06:21;;;;;;;;;;;13.40;99.90;;;;;;4997141;28;209431;-71
2023/03/30 11:08:49;;;;;;;;;;;13.40;99.90;;;;;;5075585;28;19921;-71
2023/03/30 11:11:22;;;;;;;;;;;13.40;99.90;;;;;;4993608;28;208522;-69
2023/03/30 11:13:50;;;;;;;;;;;13.50;99.90;;;;;;5052016;28;237162;-70
2023/03/30 11:16:34;;;;;;;;;;;13.60;99.90;;;;;;5029766;28;206922;-70
2023/03/30 11:19:09;;;;;;;;;;;13.80;99.90;;;;;;5008610;28;207749;-71
2023/03/30 11:21:35;;;;;;;;;;;13.80;99.90;;;;;;5068035;28;19928;-70
2023/03/30 11:24:08;;;;;;;;;;;13.90;99.90;;;;;;5014083;28;212192;-70
2023/03/30 11:26:40;;;;;;;;;;;14.10;99.90;;;;;;5048403;28;19965;-72
2023/03/30 11:29:25;;;;;;;;;;;14.30;99.90;;;;;;5002172;28;213138;-70
2023/03/30 11:31:51;;;;;;;;;;;14.30;99.90;;;;;;5060692;28;19929;-71
2023/03/30 11:34:23;;;;;;;;;;;14.50;99.90;;;;;;4994998;28;208342;-70
2023/03/30 11:36:54;;;;;;;;;;;14.80;99.90;;;;;;5055793;28;20491;-70
2023/03/30 11:39:23;;;;;;;;;;;15.10;99.90;;;;;;4992978;28;209347;-70
2023/03/30 11:42:08;;;;;;;;;;;15.30;99.90;;;;;;5055323;28;20687;-70
2023/03/30 11:44:35;;;;;;;;;;;15.40;99.90;;;;;;5007886;28;208061;-70
2023/03/30 11:47:20;;;;;;;;;;;15.10;99.90;;;;;;5057239;28;20297;-69
2023/03/30 11:49:46;;;;;;;;;;;15.50;99.90;;;;;;5015631;28;208225;-71
2023/03/30 11:52:17;;;;;;;;;;;15.20;99.90;;;;;;5051194;28;19925;-70
2023/03/30 11:55:03;;;;;;;;;;;14.80;99.90;;;;;;5008636;28;209148;-69
2023/03/30 11:57:48;;;;;;;;;;;14.70;99.90;;;;;;5063108;28;19925;-69
2023/03/30 12:00:31;;;;;;;;;;;14.60;99.90;;;;;;5011304;28;210705;-70
2023/03/30 12:03:09;;;;;;;;;;;14.40;99.90;;;;;;5057345;28;19924;-68
2023/03/30 12:05:47;;;;;;;;;;;14.90;99.90;;;;;;4993127;28;244480;-72
2023/03/30 12:08:31;;;;;;;;;;;14.90;99.90;;;;;;5065492;28;19921;-70
2023/03/30 12:11:01;;;;;;;;;;;15.40;99.90;;;;;;5019984;28;216523;-69
2023/03/30 12:13:27;;;;;;;;;;;15.30;99.90;;;;;;5059891;28;20288;-69
2023/03/30 12:15:59;;;;;;;;;;;15.20;99.90;;;;;;5018384;28;210099;-71
2023/03/30 12:18:36;;;;;;;;;;;15.20;99.90;;;;;;5055937;28;19986;-70
2023/03/30 12:21:20;;;;;;;;;;;15.00;99.90;;;;;;5008663;28;208850;-70
2023/03/30 12:23:51;;;;;;;;;;;15.30;99.90;;;;;;5068962;28;19925;-71
2023/03/30 12:26:22;;;;;;;;;;;15.00;99.90;;;;;;5006874;28;209545;-70
2023/03/30 12:29:08;;;;;;;;;;;14.80;99.90;;;;;;5055310;28;19980;-69
2023/03/30 12:31:48;;;;;;;;;;;14.50;99.90;;;;;;5007313;28;119497;-69
2023/03/30 12:34:14;;;;;;;;;;;14.30;99.90;;;;;;5002975;28;207861;-69
2023/03/30 12:36:41;;;;;;;;;;;14.00;99.90;;;;;;5060022;28;19924;-70
2023/03/30 12:39:30;;;;;;;;;;;14.00;99.90;;;;;;5004232;28;208402;-70
2023/03/30 12:42:04;;;;;;;;;;;14.00;99.90;;;;;;5046604;28;19929;-69
2023/03/30 12:44:51;;;;;;;;;;;14.40;99.90;;;;;;5014198;28;212502;-69
2023/03/30 12:47:33;;;;;;;;;;;15.30;99.90;;;;;;5068505;28;19925;-69
2023/03/30 12:49:59;;;;;;;;;;;16.00;99.90;;;;;;5005906;28;258709;-70
2023/03/30 12:52:33;;;;;;;;;;;16.70;99.90;;;;;;5065399;28;20746;-71
2023/03/30 12:55:17;;;;;;;;;;;17.00;99.90;;;;;;5005894;28;215365;-70
2023/03/30 12:58:10;;;;;;;;;;;16.80;99.90;;;;;;5059538;28;19931;-71
2023/03/30 13:00:36;;;;;;;;;;;17.20;99.90;;;;;;4989938;28;209531;-70
2023/03/30 13:03:21;;;;;;;;;;;17.40;99.90;;;;;;5060785;28;20043;-69
2023/03/30 13:05:48;;;;;;;;;;;16.80;99.90;;;;;;5008701;28;206955;-69
2023/03/30 13:08:18;;;;;;;;;;;17.10;99.90;;;;;;5056452;28;19928;-69
2023/03/30 13:10:44;;;;;;;;;;;16.90;99.90;;;;;;5003528;28;211967;-70
2023/03/30 13:13:42;;;;;;;;;;;15.90;99.90;;;;;;5058743;28;19927;-70
2023/03/30 13:16:08;;;;;;;;;;;16.10;99.90;;;;;;5002639;28;251531;-70
2023/03/30 13:18:40;;;;;;;;;;;15.60;99.90;;;;;;5058242;28;19951;-71
2023/03/30 13:21:16;;;;;;;;;;;15.30;99.90;;;;;;4998122;28;209504;-70
2023/03/30 13:23:43;;;;;;;;;;;15.80;99.90;;;;;;5080466;28;19950;-69
2023/03/30 13:26:26;;;;;;;;;;;16.20;99.90;;;;;;5001717;28;182176;-72
2023/03/30 13:29:01;;;;;;;;;;;16.50;99.90;;;;;;5036600;28;211654;-72
2023/03/30 13:31:27;;;;;;;;;;;16.80;99.90;;;;;;5033085;28;19921;-72
2023/03/30 13:34:01;;;;;;;;;;;17.20;99.90;;;;;;5023668;28;206375;-71
2023/03/30 13:36:30;;;;;;;;;;;17.30;99.90;;;;;;5042243;28;20296;-71
2023/03/30 13:39:06;;;;;;;;;;;16.80;99.90;;;;;;5019053;28;213916;-71
2023/03/30 13:41:45;;;;;;;;;;;16.60;99.90;;;;;;5056228;28;20281;-72
2023/03/30 13:44:17;;;;;;;;;;;16.00;99.90;;;;;;4996646;28;227597;-68
2023/03/30 13:46:53;;;;;;;;;;;15.40;99.90;;;;;;5071582;28;19932;-70
2023/03/30 13:49:23;;;;;;;;;;;15.20;99.90;;;;;;5027652;28;189545;-70
2023/03/30 13:51:50;;;;;;;;;;;15.60;99.90;;;;;;5068125;28;19925;-70
2023/03/30 13:54:18;;;;;;;;;;;16.00;99.90;;;;;;5011144;28;207909;-71
2023/03/30 13:56:51;;;;;;;;;;;16.30;99.90;;;;;;5058725;28;19924;-69
2023/03/30 13:59:23;;;;;;;;;;;15.70;99.90;;;;;;5009241;28;207471;-71
2023/03/30 14:01:52;;;;;;;;;;;15.40;99.90;;;;;;5046564;28;19921;-71
2023/03/30 14:04:18;;;;;;;;;;;15.20;99.90;;;;;;4988444;28;206863;-72
2023/03/30 14:06:46;;;;;;;;;;;15.50;99.90;;;;;;5071132;28;19921;-70
2023/03/30 14:09:12;;;;;;;;;;;15.70;99.90;;;;;;5002648;28;207453;-71
2023/03/30 14:11:47;;;;;;;;;;;15.40;99.90;;;;;;5074291;28;19929;-70
2023/03/30 14:14:19;;;;;;;;;;;15.40;99.90;;;;;;5006829;28;209317;-71
2023/03/30 14:16:45;;;;;;;;;;;15.10;99.90;;;;;;5060866;28;19920;-71
2023/03/30 14:19:20;;;;;;;;;;;14.70;99.90;;;;;;5004502;28;209831;-70
2023/03/30 14:21:46;;;;;;;;;;;14.60;99.90;;;;;;5057680;28;20290;-70
2023/03/30 14:24:15;;;;;;;;;;;15.50;99.90;;;;;;5012464;28;206468;-70
2023/03/30 14:26:41;;;;;;;;;;;16.40;99.90;;;;;;5076161;28;20388;-74
2023/03/30 14:29:13;;;;;;;;;;;17.00;99.90;;;;;;5004493;28;208477;-71